Time;durP1;ratioP1;P1;durP2;ratioP2;P2;SDS_P1;SDS_P2;PMS_P1;PMS_P2;Temp;Humidity;BMP_temperature;BMP_pressure;BME280_temperature;BME280_humidity;BME280_pressure;Samples;Min_cycle;Max_cycle;Signal;HPM_P1;HPM_P2
2022/12/31 00:01:48;;;;;;;2.25;1.50;;;;;;;13.45;92.17;100241.88;4862769;29;20036;-93
2022/12/31 00:04:14;;;;;;;1.92;1.70;;;;;;;13.39;92.02;100232.50;4862868;29;20025;-93
2022/12/31 00:06:39;;;;;;;3.72;1.70;;;;;;;13.44;92.13;100222.44;4862091;29;20021;-93
2022/12/31 00:09:06;;;;;;;1.33;1.20;;;;;;;13.43;91.62;100215.44;4853474;29;20493;-91
2022/12/31 00:11:33;;;;;;;3.83;1.70;;;;;;;13.47;91.92;100222.25;4876192;29;20523;-91
2022/12/31 00:13:58;;;;;;;2.03;1.50;;;;;;;13.49;91.74;100217.72;4876608;29;20025;-92
2022/12/31 00:16:35;;;;;;;1.50;1.40;;;;;;;13.49;91.76;100222.16;4874050;29;20048;-90
2022/12/31 00:19:06;;;;;;;1.92;1.50;;;;;;;13.48;92.14;100223.13;4874085;29;20033;-93
2022/12/31 00:21:33;;;;;;;1.65;1.55;;;;;;;13.44;92.25;100214.50;4856573;29;20394;-93
2022/12/31 00:23:59;;;;;;;1.35;1.25;;;;;;;13.56;91.75;100239.41;4862473;29;20027;-92
2022/12/31 00:26:28;;;;;;;3.05;1.50;;;;;;;13.58;91.75;100226.91;4861990;29;20489;-93
2022/12/31 00:28:56;;;;;;;2.25;1.60;;;;;;;13.61;92.16;100239.97;4863160;29;20029;-94
2022/12/31 00:31:25;;;;;;;3.75;1.40;;;;;;;13.56;92.21;100239.41;4864544;29;20096;-93
2022/12/31 00:33:50;;;;;;;2.60;1.48;;;;;;;13.58;93.12;100231.38;4864231;29;20033;-92
2022/12/31 00:36:17;;;;;;;1.90;1.70;;;;;;;13.56;92.72;100220.81;4860289;29;20056;-92
2022/12/31 00:38:44;;;;;;;1.60;1.50;;;;;;;13.51;93.50;100214.94;4857833;29;20029;-91
2022/12/31 00:41:10;;;;;;;1.73;1.63;;;;;;;13.50;92.86;100214.09;4874447;29;20037;-93
2022/12/31 00:43:36;;;;;;;2.60;1.83;;;;;;;13.56;93.01;100214.66;4862960;29;20029;-92
2022/12/31 00:46:03;;;;;;;4.10;1.85;;;;;;;13.58;92.70;100207.47;4865253;29;20048;-93
2022/12/31 00:48:29;;;;;;;1.88;1.77;;;;;;;13.67;92.62;100228.13;4881971;29;20033;-93
2022/12/31 00:50:55;;;;;;;2.10;1.95;;;;;;;13.56;92.42;100214.66;4865500;29;20036;-92
2022/12/31 00:53:21;;;;;;;2.38;1.58;;;;;;;13.58;92.59;100216.28;4865522;29;20549;-93
2022/12/31 00:55:46;;;;;;;1.35;1.25;;;;;;;13.49;92.06;100203.59;4865194;29;20033;-92
2022/12/31 00:58:12;;;;;;;1.48;1.25;;;;;;;13.62;92.16;100219.59;4869324;29;20029;-92
2022/12/31 01:00:38;;;;;;;4.30;1.40;;;;;;;13.53;92.55;100210.41;4854822;29;20489;-93
2022/12/31 01:03:04;;;;;;;1.15;1.05;;;;;;;13.50;92.61;100198.16;4865083;29;20053;-93
2022/12/31 01:05:30;;;;;;;1.77;1.25;;;;;;;13.49;92.59;100198.28;4858897;29;20026;-93
2022/12/31 01:07:56;;;;;;;1.08;1.00;;;;;;;13.50;92.04;100200.81;4863209;29;20029;-92
2022/12/31 01:13:06;;;;;;;1.33;0.90;;;;;;;13.45;92.71;100208.22;4880657;29;20118;-92
2022/12/31 01:15:34;;;;;;;1.20;0.80;;;;;;;13.42;92.83;100202.25;4849532;29;20077;-92
2022/12/31 01:18:00;;;;;;;0.60;0.60;;;;;;;13.48;93.23;100191.25;4851733;29;20029;-91
2022/12/31 01:20:25;;;;;;;1.00;0.60;;;;;;;13.44;93.15;100179.97;4864761;29;20029;-92
2022/12/31 01:22:50;;;;;;;0.50;0.50;;;;;;;13.43;93.12;100180.03;4881712;29;20093;-92
2022/12/31 01:25:16;;;;;;;0.40;0.40;;;;;;;13.47;92.88;100186.88;4881403;29;20464;-93
2022/12/31 01:27:41;;;;;;;0.60;0.60;;;;;;;13.46;93.15;100198.44;4881609;29;20500;-91
2022/12/31 01:30:07;;;;;;;0.75;0.60;;;;;;;13.42;93.17;100199.59;4880967;29;20029;-91
2022/12/31 01:32:32;;;;;;;0.90;0.50;;;;;;;13.39;92.87;100191.84;4864742;29;20473;-93
2022/12/31 01:34:58;;;;;;;1.00;0.70;;;;;;;13.36;92.99;100197.31;4864936;29;20029;-92
2022/12/31 01:37:23;;;;;;;0.70;0.70;;;;;;;13.30;93.08;100201.22;4864521;29;20124;-92
2022/12/31 01:39:48;;;;;;;0.75;0.60;;;;;;;13.26;93.96;100205.00;4864299;29;20060;-91
2022/12/31 01:42:14;;;;;;;0.73;0.70;;;;;;;13.24;93.96;100209.53;4881160;29;20029;-91
2022/12/31 01:44:39;;;;;;;1.10;0.47;;;;;;;13.30;93.86;100219.81;4864714;29;20500;-92
2022/12/31 01:47:10;;;;;;;1.23;0.70;;;;;;;13.21;93.60;100210.56;4864592;29;20036;-92
2022/12/31 01:49:42;;;;;;;1.83;0.68;;;;;;;13.18;93.92;100204.56;4880947;29;20111;-92
2022/12/31 01:52:14;;;;;;;1.83;0.63;;;;;;;13.18;93.80;100215.19;4864501;29;20438;-93
2022/12/31 01:54:46;;;;;;;0.60;0.60;;;;;;;13.25;93.54;100245.78;4864546;29;20036;-92
2022/12/31 01:57:12;;;;;;;0.70;0.70;;;;;;;13.17;93.70;100258.63;4864098;29;20112;-91
2022/12/31 01:59:38;;;;;;;1.73;0.60;;;;;;;13.10;93.70;100262.56;4881056;29;20029;-93
2022/12/31 02:02:04;;;;;;;1.50;0.63;;;;;;;13.12;93.90;100268.66;4863956;29;20367;-91
2022/12/31 02:04:29;;;;;;;0.75;0.55;;;;;;;13.10;93.92;100263.41;4863940;29;20119;-93
2022/12/31 02:06:59;;;;;;;0.50;0.50;;;;;;;13.20;94.01;100234.56;4879370;29;20120;-92
2022/12/31 02:09:24;;;;;;;1.10;0.77;;;;;;;13.14;93.89;100224.28;4879387;29;20033;-93
2022/12/31 02:11:50;;;;;;;0.70;0.70;;;;;;;13.23;93.66;100229.06;4863899;29;20385;-92
2022/12/31 02:14:27;;;;;;;0.60;0.60;;;;;;;13.23;93.66;100237.03;4864166;29;20112;-91
2022/12/31 02:17:45;;;;;;;0.60;0.60;;;;;;;13.22;93.39;100233.53;4880740;29;20389;-91
2022/12/31 02:20:16;;;;;;;1.05;0.82;;;;;;;13.25;92.83;100243.13;4855915;29;20037;-92
2022/12/31 02:23:19;;;;;;;0.70;0.70;;;;;;;13.35;92.72;100262.00;4880325;29;20489;-92
2022/12/31 02:26:05;;;;;;;1.08;1.08;;;;;;;13.26;93.31;100261.59;4863499;29;20450;-93
2022/12/31 02:28:49;;;;;;;1.00;0.90;;;;;;;13.30;93.23;100267.59;4863577;29;20408;-92
2022/12/31 02:31:22;;;;;;;1.00;1.00;;;;;;;13.20;92.93;100275.22;4863799;29;20503;-93
2022/12/31 02:33:57;;;;;;;1.20;1.10;;;;;;;13.25;92.78;100262.56;4863533;29;20125;-92
2022/12/31 02:36:29;;;;;;;1.45;1.35;;;;;;;13.35;92.59;100284.09;4863373;29;20025;-92
2022/12/31 02:38:55;;;;;;;1.35;1.17;;;;;;;13.35;92.14;100281.44;4863739;29;20027;-92
2022/12/31 02:44:24;;;;;;;1.60;1.50;;;;;;;13.41;92.71;100286.34;4880281;29;20044;-92
2022/12/31 02:47:07;;;;;;;2.78;1.38;;;;;;;13.39;92.54;100282.09;4880030;29;20386;-91
2022/12/31 02:49:47;;;;;;;1.95;1.65;;;;;;;13.28;92.81;100272.13;4863273;29;20033;-92
2022/12/31 02:52:12;;;;;;;2.95;1.90;;;;;;;13.27;92.61;100289.84;4863483;29;20390;-92
2022/12/31 02:54:57;;;;;;;1.75;1.65;;;;;;;13.28;92.89;100278.28;4880006;29;20036;-92
2022/12/31 02:57:38;;;;;;;1.58;1.48;;;;;;;13.27;92.76;100265.09;4863210;29;20139;-91
2022/12/31 03:02:53;;;;;;;2.13;1.92;;;;;;;13.22;93.14;100261.88;4880139;29;20096;-92
2022/12/31 03:05:23;;;;;;;1.95;1.85;;;;;;;13.26;93.37;100276.69;4879623;29;20440;-92
2022/12/31 03:07:49;;;;;;;2.70;2.50;;;;;;;13.15;93.44;100257.84;4863272;29;20397;-91
2022/12/31 03:10:14;;;;;;;4.15;2.20;;;;;;;13.22;93.44;100265.38;4862961;29;20025;-92
2022/12/31 03:12:48;;;;;;;2.40;2.20;;;;;;;13.18;94.39;100279.75;4879925;29;20040;-91
2022/12/31 03:15:22;;;;;;;3.00;1.67;;;;;;;13.22;94.20;100261.88;4862810;29;20496;-91
2022/12/31 03:18:15;;;;;;;1.80;1.70;;;;;;;13.25;93.98;100261.69;4862843;29;20056;-92
2022/12/31 03:23:33;;;;;;;1.73;1.63;;;;;;;13.11;94.12;100259.84;4879965;29;20111;-92
2022/12/31 03:26:00;;;;;;;2.10;1.85;;;;;;;13.24;92.91;100250.22;4862760;29;20393;-91
2022/12/31 03:28:28;;;;;;;1.70;1.60;;;;;;;13.12;92.92;100232.34;4862787;29;20063;-92
2022/12/31 03:30:57;;;;;;;1.92;1.70;;;;;;;13.01;93.96;100234.81;4863074;29;20037;-92
2022/12/31 03:33:23;;;;;;;2.00;1.50;;;;;;;13.03;94.04;100236.41;4862560;29;20025;-91
2022/12/31 03:35:49;;;;;;;1.67;1.58;;;;;;;12.97;94.75;100238.59;4862666;29;20041;-92
2022/12/31 03:38:16;;;;;;;1.50;1.40;;;;;;;13.03;94.11;100236.41;4862631;29;20027;-92
2022/12/31 03:40:45;;;;;;;2.10;1.92;;;;;;;13.04;93.86;100218.69;4862623;29;20064;-91
2022/12/31 03:43:10;;;;;;;2.13;2.00;;;;;;;13.01;94.08;100217.09;4862863;29;20025;-92
2022/12/31 03:45:36;;;;;;;1.98;1.88;;;;;;;13.10;93.96;100230.72;4879634;29;20543;-92
2022/12/31 03:48:04;;;;;;;1.50;1.40;;;;;;;12.97;93.88;100212.06;4862924;29;20033;-92
2022/12/31 03:50:30;;;;;;;1.85;1.48;;;;;;;13.01;94.32;100221.53;4878074;29;20021;-92
2022/12/31 03:52:56;;;;;;;1.45;1.35;;;;;;;12.95;93.95;100204.16;4862796;29;20032;-92
2022/12/31 03:55:22;;;;;;;1.23;1.13;;;;;;;12.96;94.37;100215.63;4879130;29;20033;-93
2022/12/31 03:57:47;;;;;;;1.25;1.15;;;;;;;13.01;94.12;100209.13;4879076;29;20056;-91
2022/12/31 04:00:19;;;;;;;1.30;0.98;;;;;;;13.04;93.87;100213.38;4862508;29;20076;-92
2022/12/31 04:02:45;;;;;;;0.93;0.93;;;;;;;13.18;93.19;100202.78;4879244;29;20029;-92
2022/12/31 04:05:11;;;;;;;0.73;0.73;;;;;;;12.98;93.88;100189.88;4882457;29;20080;-92
2022/12/31 04:07:37;;;;;;;0.55;0.55;;;;;;;13.02;94.14;100202.00;4882990;29;20041;-92
2022/12/31 04:10:05;;;;;;;0.50;0.50;;;;;;;13.08;94.00;100206.09;4882738;29;20520;-91
2022/12/31 04:12:30;;;;;;;0.85;0.50;;;;;;;13.02;93.83;100202.00;4882921;29;20501;-92
2022/12/31 04:14:55;;;;;;;2.13;0.70;;;;;;;13.08;94.51;100193.66;4882561;29;20021;-92
2022/12/31 04:17:21;;;;;;;0.52;0.52;;;;;;;13.12;94.77;100191.69;4865834;29;20037;-91
2022/12/31 04:19:46;;;;;;;0.50;0.50;;;;;;;13.19;94.39;100183.25;4882600;29;20433;-92
2022/12/31 04:22:11;;;;;;;0.40;0.40;;;;;;;13.31;94.21;100196.75;4882516;29;20434;-92
2022/12/31 04:24:37;;;;;;;0.60;0.60;;;;;;;13.37;94.22;100183.94;4882672;29;20029;-93
2022/12/31 04:27:02;;;;;;;0.95;0.60;;;;;;;13.45;94.03;100194.09;4882716;29;20381;-92
2022/12/31 04:29:27;;;;;;;2.85;0.70;;;;;;;13.50;94.61;100206.13;4881182;29;20378;-92
2022/12/31 04:31:53;;;;;;;0.68;0.60;;;;;;;13.56;95.14;100194.25;4862510;29;20081;-91
2022/12/31 04:34:18;;;;;;;1.92;0.60;;;;;;;13.71;94.53;100185.34;4881072;29;20031;-91
2022/12/31 04:36:44;;;;;;;1.65;0.70;;;;;;;13.66;94.53;100184.78;4865311;29;20512;-93
2022/12/31 04:39:09;;;;;;;3.03;0.80;;;;;;;13.77;94.22;100186.75;4882761;29;20113;-92
2022/12/31 04:41:34;;;;;;;2.05;0.70;;;;;;;13.86;93.91;100193.28;4882482;29;20108;-92
2022/12/31 04:44:00;;;;;;;2.95;1.13;;;;;;;14.00;94.10;100169.34;4882403;29;20056;-93
2022/12/31 04:46:29;;;;;;;1.88;0.70;;;;;;;14.05;93.42;100151.28;4865676;29;20025;-91
2022/12/31 04:48:55;;;;;;;1.75;0.68;;;;;;;14.16;93.09;100180.66;4865733;29;20025;-91
2022/12/31 04:51:21;;;;;;;4.85;0.80;;;;;;;14.24;92.10;100217.38;4865252;29;20029;-93
2022/12/31 04:53:47;;;;;;;1.15;0.80;;;;;;;14.30;91.46;100223.13;4865293;29;20477;-93
2022/12/31 04:56:13;;;;;;;2.97;1.48;;;;;;;14.20;90.63;100222.03;4865244;29;20374;-93
2022/12/31 04:58:39;;;;;;;2.50;1.58;;;;;;;14.02;89.84;100201.97;4865576;29;20041;-93
2022/12/31 05:01:05;;;;;;;2.10;1.42;;;;;;;13.80;91.10;100221.06;4865278;29;20500;-92
2022/12/31 05:03:30;;;;;;;1.63;0.57;;;;;;;13.93;92.90;100224.66;4865377;29;20520;-92
2022/12/31 05:06:01;;;;;;;1.17;0.73;;;;;;;14.11;92.39;100211.16;4865288;29;20500;-92
2022/12/31 05:08:26;;;;;;;1.20;0.70;;;;;;;14.34;91.70;100212.31;4864960;29;20040;-92
2022/12/31 05:10:52;;;;;;;2.40;0.80;;;;;;;14.48;91.03;100223.78;4865364;29;20029;-93
2022/12/31 05:13:17;;;;;;;3.85;1.05;;;;;;;14.38;94.08;100221.78;4865236;29;20504;-94
2022/12/31 05:15:42;;;;;;;2.42;0.70;;;;;;;14.46;93.97;100241.63;4864104;29;20044;-93
2022/12/31 05:18:08;;;;;;;1.20;0.68;;;;;;;14.42;94.07;100225.97;4881558;29;20033;-94
2022/12/31 05:20:34;;;;;;;1.77;0.45;;;;;;;14.60;93.49;100229.25;4881584;29;20103;-92
2022/12/31 05:22:59;;;;;;;5.38;0.68;;;;;;;14.67;91.43;100234.03;4865146;29;20056;-93
2022/12/31 05:25:25;;;;;;;1.05;0.60;;;;;;;14.76;90.57;100245.88;4880145;29;20500;-92
2022/12/31 05:27:50;;;;;;;3.30;0.77;;;;;;;14.76;89.34;100219.25;4851431;29;20489;-93
2022/12/31 05:30:17;;;;;;;3.05;0.60;;;;;;;14.96;88.89;100248.03;4876932;29;20442;-92
2022/12/31 05:32:43;;;;;;;2.20;0.50;;;;;;;15.04;87.92;100244.88;4881503;29;20101;-93
2022/12/31 05:35:08;;;;;;;2.65;0.77;;;;;;;15.00;87.82;100243.38;4881007;29;20029;-93
2022/12/31 05:37:34;;;;;;;1.17;0.57;;;;;;;15.03;88.52;100256.47;4848577;29;20029;-93
2022/12/31 05:39:59;;;;;;;2.60;0.52;;;;;;;14.80;91.18;100247.38;4863131;29;20026;-93
2022/12/31 05:42:25;;;;;;;1.23;0.40;;;;;;;14.74;91.94;100250.47;4860950;29;20025;-93
2022/12/31 05:44:50;;;;;;;2.10;0.47;;;;;;;14.71;92.46;100263.97;4881240;29;20544;-93
2022/12/31 05:47:16;;;;;;;0.95;0.60;;;;;;;14.68;92.87;100251.69;4852016;29;20021;-93
2022/12/31 05:49:41;;;;;;;2.58;0.63;;;;;;;14.76;91.78;100245.88;4879430;29;20032;-93
2022/12/31 05:52:06;;;;;;;2.80;0.60;;;;;;;14.79;91.63;100262.50;4863190;29;20029;-93
2022/12/31 05:54:35;;;;;;;1.95;0.40;;;;;;;14.76;91.34;100253.88;4846027;29;20064;-93
2022/12/31 05:57:01;;;;;;;2.97;0.50;;;;;;;14.80;90.15;100248.22;4852188;29;20058;-93
2022/12/31 05:59:27;;;;;;;2.33;0.80;;;;;;;14.88;88.87;100260.19;4880901;29;20033;-93
2022/12/31 06:01:52;;;;;;;1.65;0.60;;;;;;;14.96;88.01;100239.19;4864029;29;20478;-93
2022/12/31 06:04:18;;;;;;;0.52;0.43;;;;;;;15.07;86.81;100223.38;4861923;29;20040;-92
2022/12/31 06:06:43;;;;;;;1.13;0.50;;;;;;;15.26;86.26;100238.94;4880659;29;20481;-93
2022/12/31 06:09:09;;;;;;;2.40;0.80;;;;;;;15.24;85.94;100265.63;4864233;29;20028;-93
2022/12/31 06:11:34;;;;;;;1.08;0.50;;;;;;;15.29;85.13;100250.22;4864425;29;20025;-93
2022/12/31 06:14:00;;;;;;;0.55;0.50;;;;;;;15.38;84.00;100247.84;4864265;29;20511;-93
2022/12/31 06:16:25;;;;;;;4.97;0.80;;;;;;;15.60;82.91;100248.06;4880601;29;20544;-93
2022/12/31 06:18:51;;;;;;;2.20;0.60;;;;;;;15.62;82.31;100256.81;4864366;29;20506;-93
2022/12/31 06:21:18;;;;;;;1.38;0.45;;;;;;;15.67;80.95;100280.50;4854748;29;20040;-95
2022/12/31 06:23:43;;;;;;;1.73;0.43;;;;;;;15.83;80.24;100278.44;4848062;29;20372;-94
2022/12/31 06:26:09;;;;;;;1.25;0.47;;;;;;;16.08;79.14;100290.88;4848073;29;20021;-94
2022/12/31 06:28:35;;;;;;;3.55;1.00;;;;;;;15.99;79.53;100284.41;4864893;29;20109;-94
2022/12/31 06:31:05;;;;;;;1.05;0.30;;;;;;;16.01;78.83;100278.97;4848020;29;20026;-95
2022/12/31 06:33:31;;;;;;;2.22;0.82;;;;;;;16.06;77.96;100274.16;4870163;29;20097;-95
2022/12/31 06:36:37;;;;;;;1.85;0.28;;;;;;;16.28;78.17;100308.13;4869008;29;20029;-94
2022/12/31 06:39:03;;;;;;;0.80;0.38;;;;;;;16.13;77.38;100270.06;4868886;29;20037;-94
2022/12/31 06:41:30;;;;;;;2.50;0.40;;;;;;;16.22;76.85;100266.72;4868457;29;20057;-95
2022/12/31 06:43:56;;;;;;;1.42;0.38;;;;;;;16.18;76.75;100283.94;4853785;29;20117;-94
2022/12/31 06:46:21;;;;;;;1.33;0.32;;;;;;;16.32;75.92;100283.78;4853949;29;20052;-94
2022/12/31 06:48:46;;;;;;;2.08;0.50;;;;;;;16.33;75.63;100277.47;4885577;29;20481;-94
2022/12/31 06:51:15;;;;;;;0.68;0.40;;;;;;;16.36;75.82;100276.38;4867906;29;20044;-94
2022/12/31 06:53:40;;;;;;;1.23;0.28;;;;;;;16.34;76.47;100270.31;4869315;29;20064;-95
2022/12/31 06:56:08;;;;;;;0.85;0.40;;;;;;;16.24;76.03;100261.31;4871159;29;20053;-96
2022/12/31 06:58:34;;;;;;;3.53;0.40;;;;;;;16.28;75.30;100260.97;4872388;29;20056;-95
2022/12/31 07:01:11;;;;;;;1.85;0.30;;;;;;;16.34;75.83;100273.00;4870082;29;20052;-95
2022/12/31 07:03:36;;;;;;;0.77;0.38;;;;;;;16.43;76.07;100296.34;4870259;29;20036;-94
2022/12/31 07:06:25;;;;;;;0.88;0.45;;;;;;;16.35;76.16;100289.84;4878165;29;20024;-93
2022/12/31 07:09:03;;;;;;;2.55;0.65;;;;;;;16.40;75.98;100283.22;4877858;29;20033;-94
2022/12/31 07:11:43;;;;;;;2.03;0.30;;;;;;;16.58;75.08;100279.19;4878985;29;20033;-94
2022/12/31 07:14:44;;;;;;;2.67;0.55;;;;;;;16.58;75.81;100279.19;4895453;29;20406;-95
2022/12/31 07:17:27;;;;;;;2.80;0.60;;;;;;;16.51;75.73;100274.44;4885769;29;20077;-94
2022/12/31 07:20:01;;;;;;;;;;;;;;;16.54;76.48;100287.53;4876800;29;20505;-94
2022/12/31 07:22:27;;;;;;;1.80;0.68;;;;;;;16.33;76.79;100277.47;4893228;29;20388;-94
2022/12/31 07:24:54;;;;;;;1.27;0.45;;;;;;;16.31;76.26;100292.72;4878614;29;20069;-94
2022/12/31 07:31:06;;;;;;;1.40;0.50;;;;;;;16.50;74.95;100278.03;4888125;29;20044;-96
2022/12/31 07:33:57;;;;;;;1.85;0.50;;;;;;;16.54;75.03;100299.06;4876221;29;20080;-96
2022/12/31 07:37:12;;;;;;;2.55;0.60;;;;;;;16.61;75.72;100298.63;4873512;29;20037;-93
2022/12/31 07:39:59;;;;;;;1.05;0.57;;;;;;;16.38;76.08;100295.81;4879245;29;20077;-96
2022/12/31 07:46:15;;;;;;;2.58;0.65;;;;;;;16.36;75.77;100311.06;4899344;29;20143;-95
2022/12/31 07:52:07;;;;;;;2.08;0.70;;;;;;;16.33;75.40;100297.97;4899900;29;20073;-95
2022/12/31 07:54:32;;;;;;;4.00;0.88;;;;;;;15.82;83.44;100312.25;4879749;29;20060;-95
2022/12/31 07:56:58;;;;;;;5.40;0.80;;;;;;;15.57;82.92;100288.25;4880243;29;20049;-95
2022/12/31 08:03:11;;;;;;;2.95;1.08;;;;;;;15.85;81.91;100299.66;4898827;29;20504;-95
2022/12/31 08:06:05;;;;;;;1.95;0.75;;;;;;;15.78;81.03;100286.78;4896529;29;20124;-95
2022/12/31 08:09:05;;;;;;;5.47;0.90;;;;;;;15.71;82.20;100309.47;4879874;29;20029;-95
2022/12/31 08:12:08;;;;;;;1.45;0.70;;;;;;;15.64;84.24;100316.22;4880533;29;20029;-95
2022/12/31 08:14:43;;;;;;;1.42;0.60;;;;;;;15.24;87.64;100352.69;4879409;29;20053;-93
2022/12/31 08:20:33;;;;;;;2.10;0.60;;;;;;;14.75;91.07;100324.00;4892327;29;20064;-94
2022/12/31 08:23:04;;;;;;;2.55;1.00;;;;;;;14.90;90.04;100362.91;4873932;29;20550;-95
2022/12/31 08:26:14;;;;;;;3.53;0.50;;;;;;;15.14;89.28;100384.38;4874175;29;20029;-95
2022/12/31 08:29:00;;;;;;;2.00;0.70;;;;;;;15.02;89.01;100356.78;4887855;29;20029;-95
2022/12/31 08:31:54;;;;;;;1.27;0.65;;;;;;;15.02;88.50;100378.09;4871000;29;20040;-96
2022/12/31 08:34:34;;;;;;;3.50;0.80;;;;;;;15.11;87.74;100399.72;4885497;29;20047;-95
2022/12/31 08:37:41;;;;;;;3.25;0.90;;;;;;;15.23;86.48;100406.91;4885658;29;20123;-94
2022/12/31 08:40:15;;;;;;;1.75;0.70;;;;;;;15.24;86.07;100417.44;4857091;29;20053;-95
2022/12/31 08:42:54;;;;;;;1.83;0.65;;;;;;;15.36;86.25;100406.94;4868663;29;20056;-95
2022/12/31 08:45:30;;;;;;;1.08;0.68;;;;;;;15.31;85.47;100424.09;4872061;29;20025;-95
2022/12/31 08:48:05;;;;;;;3.05;0.75;;;;;;;15.38;87.83;100429.00;4872590;29;20064;-95
2022/12/31 08:50:30;;;;;;;2.65;1.00;;;;;;;15.23;87.62;100431.72;4873225;29;20035;-95
2022/12/31 08:52:57;;;;;;;2.47;0.70;;;;;;;15.31;87.43;100448.06;4874306;29;20438;-95
2022/12/31 08:55:23;;;;;;;3.67;0.68;;;;;;;15.31;86.88;100445.38;4871774;29;20037;-95
2022/12/31 08:57:57;;;;;;;4.68;0.70;;;;;;;15.47;86.58;100460.34;4869737;29;20086;-94
2022/12/31 09:00:25;;;;;;;1.95;0.70;;;;;;;15.46;85.57;100464.81;4870717;29;20038;-95
2022/12/31 09:03:14;;;;;;;0.52;0.50;;;;;;;15.51;85.48;100470.69;4869452;29;20030;-94
2022/12/31 09:06:11;;;;;;;1.98;0.90;;;;;;;15.77;84.20;100482.31;4869967;29;20089;-94
2022/12/31 09:09:00;;;;;;;4.25;1.00;;;;;;;15.72;83.33;100475.59;4871776;29;20086;-94
2022/12/31 09:11:47;;;;;;;2.35;0.77;;;;;;;15.84;84.10;100497.88;4871181;29;20060;-94
2022/12/31 09:14:31;;;;;;;3.60;1.02;;;;;;;15.84;84.19;100501.41;4867938;29;20037;-95
2022/12/31 09:17:09;;;;;;;3.47;0.90;;;;;;;15.81;84.21;100507.81;4867349;29;20044;-95
2022/12/31 09:19:34;;;;;;;1.15;0.70;;;;;;;15.64;85.02;100520.56;4866269;29;20030;-95
2022/12/31 09:22:00;;;;;;;3.63;0.77;;;;;;;15.38;86.36;100514.22;4865097;29;20036;-94
2022/12/31 09:24:26;;;;;;;5.35;0.85;;;;;;;15.17;88.88;100524.47;4865506;29;20029;-93
2022/12/31 09:26:54;;;;;;;2.85;0.90;;;;;;;15.09;91.09;100545.41;4865090;29;20104;-92
2022/12/31 09:29:55;;;;;;;2.70;0.80;;;;;;;15.02;91.51;100547.63;4863483;29;20030;-92
2022/12/31 09:32:35;;;;;;;3.72;1.00;;;;;;;14.88;91.31;100542.31;4862961;29;20034;-93
2022/12/31 09:35:34;;;;;;;3.17;0.95;;;;;;;15.03;90.86;100547.50;4862104;29;20091;-93
2022/12/31 09:38:09;;;;;;;2.35;0.90;;;;;;;14.94;90.87;100541.91;4847336;29;20041;-93
2022/12/31 09:40:45;;;;;;;4.63;1.00;;;;;;;14.99;90.99;100534.50;4844441;29;20110;-94
2022/12/31 09:43:49;;;;;;;1.90;0.88;;;;;;;15.04;90.88;100551.88;4846101;29;20029;-94
2022/12/31 09:46:36;;;;;;;4.95;1.13;;;;;;;15.13;90.50;100557.59;4848293;29;20022;-94
2022/12/31 09:49:33;;;;;;;7.00;1.20;;;;;;;15.17;89.95;100556.44;4849323;29;20065;-95
2022/12/31 09:52:16;;;;;;;2.80;1.00;;;;;;;15.20;89.58;100559.75;4849335;29;20029;-95
2022/12/31 09:58:37;;;;;;;2.28;0.73;;;;;;;15.40;88.54;100554.97;4853362;29;20056;-94
2022/12/31 10:01:12;;;;;;;3.13;0.98;;;;;;;15.40;87.50;100538.97;4854729;29;20037;-94
2022/12/31 10:03:57;;;;;;;1.85;0.60;;;;;;;15.57;87.35;100560.03;4854695;29;20037;-94
2022/12/31 10:06:36;;;;;;;2.30;0.80;;;;;;;15.54;86.28;100533.59;4854256;29;20034;-94
2022/12/31 10:09:20;;;;;;;2.67;0.98;;;;;;;15.72;85.14;100550.22;4852809;29;20033;-94
2022/12/31 10:15:26;;;;;;;3.53;1.40;;;;;;;15.71;85.37;100576.00;4869985;29;20048;-94
2022/12/31 10:21:46;;;;;;;2.28;0.75;;;;;;;15.86;85.24;100560.81;4866458;29;20099;-94
2022/12/31 10:27:47;;;;;;;1.92;0.90;;;;;;;15.87;83.99;100557.19;4865295;29;20128;-94
2022/12/31 10:30:21;;;;;;;3.00;1.10;;;;;;;15.98;82.56;100532.47;4850211;29;20029;-94
2022/12/31 10:33:06;;;;;;;3.50;0.85;;;;;;;16.02;82.14;100521.50;4851438;29;20033;-94
2022/12/31 10:50:09;;;;;;;7.70;1.25;;;;;;;16.29;78.20;100513.41;4844485;29;20091;-94
2022/12/31 11:04:12;;;;;;;2.05;0.77;;;;;;;16.51;75.67;100551.97;4799440;29;20082;-93
2022/12/31 11:07:35;;;;;;;4.70;0.85;;;;;;;16.67;75.43;100557.06;4779524;29;20043;-94
2022/12/31 11:13:50;;;;;;;3.60;0.80;;;;;;;16.66;74.81;100566.03;4776933;29;20102;-93
2022/12/31 11:16:38;;;;;;;3.42;1.08;;;;;;;16.63;74.66;100564.44;4796697;29;20058;-82
2022/12/31 11:19:24;;;;;;;4.13;1.35;;;;;;;16.68;74.77;100540.94;4832421;29;20091;-82
2022/12/31 11:22:08;;;;;;;3.28;0.98;;;;;;;16.73;74.40;100556.66;4833039;29;20029;-82
2022/12/31 11:25:02;;;;;;;4.43;0.93;;;;;;;16.80;74.08;100557.97;4833234;29;20033;-82
2022/12/31 11:27:49;;;;;;;3.08;1.08;;;;;;;16.82;72.95;100553.34;4840446;29;20034;-85
2022/12/31 11:30:51;;;;;;;6.03;1.63;;;;;;;16.90;73.22;100561.69;4842126;29;20030;-84
2022/12/31 11:33:24;;;;;;;;;;;;;;;16.96;73.27;100565.72;4833005;29;20556;-84
2022/12/31 11:43:11;;;;;;;5.38;1.02;;;;;;;16.94;73.08;100581.00;4834428;29;20413;-85
2022/12/31 11:55:59;;;;;;;4.05;1.30;;;;;;;16.55;73.54;100585.47;4825407;29;20398;-95
2022/12/31 11:58:27;;;;;;;4.72;1.10;;;;;;;16.40;74.58;100551.84;4824888;29;20041;-93
2022/12/31 12:01:18;;;;;;;4.82;1.73;;;;;;;16.51;74.97;100589.31;4830785;29;20050;-93
2022/12/31 12:03:45;;;;;;;6.43;1.00;;;;;;;16.41;74.38;100565.06;4856419;29;20069;-94
2022/12/31 12:06:12;;;;;;;4.15;1.33;;;;;;;16.49;74.34;100572.53;4855138;29;20021;-94
2022/12/31 12:08:37;;;;;;;4.72;1.25;;;;;;;16.40;74.06;100573.19;4849125;29;20478;-93
2022/12/31 12:11:12;;;;;;;7.07;1.70;;;;;;;16.45;75.16;100590.56;4857473;29;20029;-94
2022/12/31 12:13:41;;;;;;;5.45;1.25;;;;;;;16.29;75.44;100565.91;4858994;29;20558;-94
2022/12/31 12:16:07;;;;;;;3.60;1.33;;;;;;;16.20;75.93;100555.88;4863707;29;20138;-94
2022/12/31 12:18:45;;;;;;;3.33;1.05;;;;;;;16.26;75.99;100566.97;4854862;29;20677;-93
2022/12/31 12:35:15;;;;;;;2.75;0.95;;;;;;;16.06;79.01;100568.34;4767927;30;20091;-93
2022/12/31 12:37:40;;;;;;;7.32;1.30;;;;;;;15.91;79.88;100569.38;4788193;29;20027;-95
2022/12/31 12:40:20;;;;;;;4.10;1.35;;;;;;;15.92;80.15;100559.56;4789040;29;20259;-94
2022/12/31 12:43:05;;;;;;;5.80;1.80;;;;;;;16.01;78.77;100556.28;5045337;27;1279153;-92
2022/12/31 12:45:43;;;;;;;3.88;1.52;;;;;;;16.10;79.20;100555.66;5064355;28;20028;-92
2022/12/31 12:48:17;;;;;;;7.25;1.73;;;;;;;16.06;77.63;100559.47;5060293;28;20146;-92
2022/12/31 12:50:45;;;;;;;5.82;1.35;;;;;;;16.10;77.37;100544.97;5079966;28;20402;-92
2022/12/31 12:53:31;;;;;;;3.20;0.93;;;;;;;16.29;76.96;100547.25;5059209;28;20016;-92
2022/12/31 12:56:11;;;;;;;3.78;1.10;;;;;;;16.30;76.35;100549.78;5063847;28;20483;-91
2022/12/31 12:58:51;;;;;;;5.80;1.38;;;;;;;16.30;75.79;100549.78;5083565;28;20024;-93
2022/12/31 13:01:33;;;;;;;2.33;1.00;;;;;;;16.37;75.67;100544.03;5078736;28;20032;-91
2022/12/31 13:04:20;;;;;;;4.60;1.42;;;;;;;16.47;75.27;100553.97;5064193;28;20042;-92
2022/12/31 13:06:48;;;;;;;5.28;1.40;;;;;;;16.51;74.29;100549.28;5083695;28;20029;-92
2022/12/31 13:10:06;;;;;;;9.20;1.20;;;;;;;16.55;74.18;100569.44;5081084;28;20495;-92
2022/12/31 13:12:40;;;;;;;4.32;1.30;;;;;;;16.53;72.94;100584.72;5056895;28;20483;-91
2022/12/31 13:15:21;;;;;;;5.07;1.30;;;;;;;16.67;73.04;100576.59;5077610;28;20031;-91
2022/12/31 13:18:03;;;;;;;3.40;1.50;;;;;;;16.62;72.49;100567.22;5043703;28;20032;-92
2022/12/31 13:20:37;;;;;;;14.65;2.08;;;;;;;16.62;71.71;100565.41;5034372;28;20056;-90
2022/12/31 13:23:25;;;;;;;7.13;1.77;;;;;;;16.71;71.67;100569.25;5041560;28;20699;-91
2022/12/31 13:26:23;;;;;;;5.47;1.33;;;;;;;16.68;71.71;100545.44;5058968;28;20415;-92
2022/12/31 13:28:51;;;;;;;4.28;1.38;;;;;;;16.66;71.81;100558.88;5054309;28;20087;-92
2022/12/31 13:31:22;;;;;;;3.28;0.98;;;;;;;16.65;71.08;100564.34;5057472;28;20144;-92
2022/12/31 13:34:29;;;;;;;3.97;1.30;;;;;;;16.91;69.30;100554.50;5039642;28;20029;-91
2022/12/31 13:37:00;;;;;;;3.95;1.52;;;;;;;16.76;69.33;100545.78;4999233;28;20033;-91
2022/12/31 13:39:28;;;;;;;4.15;1.25;;;;;;;16.95;68.68;100545.31;5047957;28;20091;-90